Terminal Aerodrome Forecast
Issued by NWS Wilmington, OH

Current Version | Previous Version | Graphics & Text | Print | Product List | Glossary On
Versions: 1 2 3 4 5 6 7 8 9 10 11 12 13 14 15 16
193
FTUS41 KILN 041130
TAFDAY
TAF
KDAY 041130Z 0412/0512 28011KT P6SM OVC018
     FM041500 27010KT P6SM BKN025
     FM042200 28007KT P6SM SCT025
     FM050200 26006KT P6SM SKC=

USA.gov is the U.S. government's official web portal to all federal, state and local government web resources and services.